Lagoa, Portugal
Current Conditions -  °F | °C
As of 7:30 AM on Saturday 25 Oct 2014 (Local Time) from LPFR Reporting Station
Broken Clouds Broken Clouds  
Wind Chill: 68°   Ceiling: 1700
Heat Index: 68°   Visibility: 6mi
Dew Point: 64°   Wind: 13mph
Humidity: 88%   Direction: 90°E
Pressure: 29.97"   Gusts: NA
Location:  37.14°N, 8.45°W
Report Text: LPFR 250730Z 09011KT 9999 FEW014 BKN017 20/18 Q1015
Loading
Personal Weather Stations






























Interactive Weather Map
Tropical Storm Tracking
New forecast layout! Learn more

10-Day Weather Forecast

Advertisements
Track Severe Weather on mobile